MSR990 OERK-OMDB
Flight info
| Callsign | MSR990 |
|---|---|
| Flight time | N/A |
| Altitude | 36996 |
| Route | RIKAT L602 ALAIN |
| Aircraft | B738/M-V/N |
Departure
| Time | 2026-05-07 23:45 |
|---|---|
| Airport | King Khalid International Airport (OERK) |
Arrival
| Time | N/A |
|---|---|
| Airport | Dubai International Airport (OMDB) |
| Time | Latitude | Longitude | Altitude | Speed | Heading |
|---|---|---|---|---|---|
| 2026-05-07 23:28 | 24.96752 | 46.70001 | 2050 ft | 0 kts | 240° |
| 2026-05-07 23:34 | 24.96748 | 46.69993 | 2050 ft | 5 kts | 240° |
| 2026-05-07 23:34 | 24.96740 | 46.69977 | 2050 ft | 0 kts | 240° |
| 2026-05-07 23:36 | 24.96740 | 46.69978 | 2050 ft | 0 kts | 240° |
| 2026-05-07 23:37 | 24.96741 | 46.69979 | 2050 ft | 0 kts | 240° |
| 2026-05-07 23:37 | 24.96744 | 46.69984 | 2050 ft | 3 kts | 240° |
| 2026-05-07 23:37 | 24.96782 | 46.70058 | 2050 ft | 16 kts | 241° |
| 2026-05-07 23:38 | 24.96800 | 46.70116 | 2048 ft | 2 kts | 287° |
| 2026-05-07 23:38 | 24.96799 | 46.70118 | 2048 ft | 0 kts | 320° |
| 2026-05-07 23:39 | 24.96802 | 46.70115 | 2048 ft | 3 kts | 320° |
| 2026-05-07 23:39 | 24.96854 | 46.70070 | 2048 ft | 14 kts | 324° |
| 2026-05-07 23:39 | 24.96959 | 46.69999 | 2048 ft | 19 kts | 333° |
| 2026-05-07 23:39 | 24.97094 | 46.69918 | 2048 ft | 25 kts | 331° |
| 2026-05-07 23:40 | 24.97155 | 46.69880 | 2049 ft | 7 kts | 330° |
| 2026-05-07 23:40 | 24.97225 | 46.69837 | 2049 ft | 15 kts | 330° |
| 2026-05-07 23:40 | 24.97331 | 46.69774 | 2049 ft | 11 kts | 340° |
| 2026-05-07 23:40 | 24.97426 | 46.69773 | 2049 ft | 16 kts | 26° |
| 2026-05-07 23:41 | 24.97502 | 46.69881 | 2047 ft | 20 kts | 63° |
| 2026-05-07 23:41 | 24.97548 | 46.69977 | 2048 ft | 0 kts | 61° |
| 2026-05-07 23:42 | 24.97548 | 46.69978 | 2048 ft | 1 kts | 56° |
| 2026-05-07 23:43 | 24.97569 | 46.70018 | 2048 ft | 10 kts | 62° |
| 2026-05-07 23:43 | 24.97605 | 46.70112 | 2048 ft | 15 kts | 73° |
| 2026-05-07 23:43 | 24.97601 | 46.70246 | 2047 ft | 19 kts | 138° |
| 2026-05-07 23:43 | 24.97534 | 46.70295 | 2047 ft | 11 kts | 149° |
| 2026-05-07 23:44 | 24.97426 | 46.70363 | 2046 ft | 22 kts | 150° |
| 2026-05-07 23:44 | 24.97084 | 46.70567 | 2042 ft | 80 kts | 151° |
| 2026-05-07 23:44 | 24.96307 | 46.71029 | 2037 ft | 136 kts | 159° |
| 2026-05-07 23:44 | 24.95290 | 46.71449 | 2111 ft | 166 kts | 161° |
| 2026-05-07 23:45 | 24.94179 | 46.72028 | 2328 ft | 184 kts | 159° |
| 2026-05-07 23:45 | 24.92950 | 46.72477 | 2714 ft | 189 kts | 169° |
| 2026-05-07 23:45 | 24.91625 | 46.72992 | 3221 ft | 213 kts | 165° |
| 2026-05-07 23:45 | 24.90156 | 46.73346 | 3973 ft | 226 kts | 178° |
| 2026-05-07 23:46 | 24.88611 | 46.73178 | 4614 ft | 239 kts | 203° |
| 2026-05-07 23:46 | 24.86963 | 46.72230 | 4767 ft | 288 kts | 208° |
| 2026-05-07 23:46 | 24.85007 | 46.71198 | 4789 ft | 338 kts | 206° |
| 2026-05-07 23:46 | 24.82810 | 46.70257 | 5873 ft | 347 kts | 207° |
| 2026-05-07 23:47 | 24.80745 | 46.68997 | 7133 ft | 350 kts | 214° |
| 2026-05-07 23:47 | 24.78661 | 46.67728 | 7940 ft | 362 kts | 208° |
| 2026-05-07 23:47 | 24.76404 | 46.66663 | 9227 ft | 360 kts | 205° |
| 2026-05-07 23:47 | 24.74012 | 46.65683 | 9979 ft | 373 kts | 200° |
| 2026-05-07 23:48 | 24.71522 | 46.64969 | 11160 ft | 371 kts | 196° |
| 2026-05-07 23:48 | 24.68965 | 46.64384 | 11795 ft | 379 kts | 193° |
| 2026-05-07 23:48 | 24.66360 | 46.63962 | 12079 ft | 381 kts | 189° |
| 2026-05-07 23:48 | 24.63648 | 46.63785 | 12462 ft | 380 kts | 184° |
| 2026-05-07 23:49 | 24.60877 | 46.63701 | 12732 ft | 383 kts | 187° |
| 2026-05-07 23:49 | 24.58150 | 46.63573 | 12978 ft | 385 kts | 184° |
| 2026-05-07 23:49 | 24.55298 | 46.63650 | 13274 ft | 386 kts | 179° |
| 2026-05-07 23:49 | 24.52589 | 46.63966 | 13525 ft | 388 kts | 175° |
| 2026-05-07 23:50 | 24.49934 | 46.64519 | 13775 ft | 389 kts | 170° |
| 2026-05-07 23:50 | 24.47305 | 46.65207 | 14036 ft | 390 kts | 171° |
| 2026-05-07 23:50 | 24.44353 | 46.65751 | 14259 ft | 392 kts | 177° |
| 2026-05-07 23:50 | 24.41513 | 46.65958 | 14500 ft | 393 kts | 183° |
| 2026-05-07 23:51 | 24.38781 | 46.65865 | 14708 ft | 395 kts | 188° |
| 2026-05-07 23:51 | 24.36051 | 46.65568 | 14913 ft | 396 kts | 191° |
| 2026-05-07 23:51 | 24.33331 | 46.65161 | 15109 ft | 397 kts | 192° |
| 2026-05-07 23:51 | 24.30559 | 46.64695 | 15303 ft | 398 kts | 192° |
| 2026-05-07 23:52 | 24.27813 | 46.64214 | 15491 ft | 399 kts | 192° |
| 2026-05-07 23:52 | 24.25075 | 46.63729 | 15666 ft | 400 kts | 193° |
| 2026-05-07 23:52 | 24.22330 | 46.63244 | 15839 ft | 401 kts | 192° |
| 2026-05-07 23:52 | 24.19581 | 46.62759 | 16007 ft | 402 kts | 192° |
| 2026-05-07 23:53 | 24.16823 | 46.62274 | 16166 ft | 403 kts | 192° |
| 2026-05-07 23:53 | 24.14057 | 46.61787 | 16320 ft | 404 kts | 192° |
| 2026-05-07 23:53 | 24.11290 | 46.61301 | 16471 ft | 405 kts | 192° |
| 2026-05-07 23:53 | 24.08513 | 46.60835 | 16612 ft | 406 kts | 192° |
| 2026-05-07 23:54 | 24.05725 | 46.60410 | 16759 ft | 406 kts | 191° |
| 2026-05-07 23:54 | 24.02926 | 46.59977 | 16889 ft | 407 kts | 192° |
| 2026-05-07 23:54 | 24.00127 | 46.59519 | 17022 ft | 408 kts | 192° |
| 2026-05-07 23:54 | 23.97330 | 46.59038 | 17148 ft | 409 kts | 192° |
| 2026-05-07 23:55 | 23.94534 | 46.58546 | 17270 ft | 409 kts | 193° |
| 2026-05-07 23:55 | 23.91724 | 46.58044 | 17386 ft | 410 kts | 193° |
| 2026-05-07 23:55 | 23.88912 | 46.57542 | 17501 ft | 411 kts | 193° |
| 2026-05-07 23:55 | 23.86100 | 46.57039 | 17612 ft | 411 kts | 193° |
| 2026-05-07 23:56 | 23.83243 | 46.56529 | 17720 ft | 412 kts | 193° |
| 2026-05-07 23:56 | 23.80421 | 46.56025 | 17820 ft | 413 kts | 193° |
| 2026-05-07 23:56 | 23.77579 | 46.55534 | 17912 ft | 414 kts | 191° |
| 2026-05-07 23:56 | 23.74723 | 46.55206 | 18004 ft | 414 kts | 187° |
| 2026-05-07 23:57 | 23.71852 | 46.55108 | 18103 ft | 414 kts | 183° |
| 2026-05-07 23:57 | 23.68980 | 46.55243 | 18190 ft | 415 kts | 179° |
| 2026-05-07 23:57 | 23.66114 | 46.55615 | 18278 ft | 415 kts | 174° |
| 2026-05-07 23:57 | 23.63256 | 46.56114 | 18371 ft | 416 kts | 173° |
| 2026-05-07 23:58 | 23.60431 | 46.56760 | 18431 ft | 417 kts | 169° |
| 2026-05-07 23:58 | 23.57653 | 46.57633 | 18520 ft | 417 kts | 165° |
| 2026-05-07 23:58 | 23.54877 | 46.58754 | 18592 ft | 417 kts | 161° |
| 2026-05-07 23:58 | 23.51933 | 46.60244 | 18676 ft | 418 kts | 156° |
| 2026-05-07 23:59 | 23.49034 | 46.62046 | 18755 ft | 418 kts | 151° |
| 2026-05-07 23:59 | 23.46280 | 46.64114 | 18832 ft | 419 kts | 146° |
| 2026-05-07 23:59 | 23.43670 | 46.66456 | 18906 ft | 419 kts | 141° |
| 2026-05-07 23:59 | 23.41318 | 46.68955 | 18975 ft | 420 kts | 136° |
| 2026-05-08 00:00 | 23.39399 | 46.71338 | 19032 ft | 420 kts | 132° |
| 2026-05-08 00:00 | 23.37641 | 46.73873 | 19088 ft | 420 kts | 128° |
| 2026-05-08 00:00 | 23.36060 | 46.76537 | 19144 ft | 421 kts | 124° |
| 2026-05-08 00:00 | 23.34657 | 46.79327 | 19196 ft | 421 kts | 120° |
| 2026-05-08 00:01 | 23.33442 | 46.82225 | 19247 ft | 421 kts | 115° |
| 2026-05-08 00:01 | 23.32423 | 46.85213 | 19297 ft | 422 kts | 111° |
| 2026-05-08 00:01 | 23.31607 | 46.88270 | 19347 ft | 422 kts | 107° |
| 2026-05-08 00:01 | 23.30997 | 46.91387 | 19397 ft | 422 kts | 103° |
| 2026-05-08 00:02 | 23.30586 | 46.94545 | 19391 ft | 423 kts | 100° |
| 2026-05-08 00:02 | 23.30304 | 46.97693 | 18878 ft | 415 kts | 96° |
| 2026-05-08 00:02 | 23.30342 | 47.00845 | 19007 ft | 412 kts | 89° |
| 2026-05-08 00:02 | 23.30613 | 47.03951 | 19092 ft | 413 kts | 85° |
| 2026-05-08 00:03 | 23.31123 | 47.07029 | 19145 ft | 414 kts | 80° |
| 2026-05-08 00:03 | 23.31867 | 47.10053 | 19196 ft | 415 kts | 76° |
| 2026-05-08 00:03 | 23.32839 | 47.13011 | 19247 ft | 416 kts | 71° |
| 2026-05-08 00:03 | 23.34031 | 47.15881 | 19298 ft | 417 kts | 66° |
| 2026-05-08 00:04 | 23.35427 | 47.18639 | 19349 ft | 418 kts | 62° |
| 2026-05-08 00:04 | 23.37027 | 47.21285 | 19399 ft | 419 kts | 57° |
| 2026-05-08 00:04 | 23.38798 | 47.23784 | 19451 ft | 419 kts | 53° |
| 2026-05-08 00:04 | 23.40691 | 47.26193 | 19503 ft | 420 kts | 52° |
| 2026-05-08 00:05 | 23.42623 | 47.28561 | 19553 ft | 420 kts | 51° |
| 2026-05-08 00:05 | 23.44570 | 47.30928 | 19603 ft | 420 kts | 51° |
| 2026-05-08 00:05 | 23.46521 | 47.33298 | 19653 ft | 421 kts | 51° |
| 2026-05-08 00:05 | 23.48468 | 47.35663 | 19703 ft | 421 kts | 51° |
| 2026-05-08 00:06 | 23.50419 | 47.38034 | 19753 ft | 421 kts | 51° |
| 2026-05-08 00:06 | 23.52370 | 47.40404 | 19803 ft | 421 kts | 51° |
| 2026-05-08 00:06 | 23.54325 | 47.42781 | 19853 ft | 421 kts | 51° |
| 2026-05-08 00:06 | 23.56278 | 47.45153 | 19903 ft | 422 kts | 51° |
| 2026-05-08 00:07 | 23.58253 | 47.47552 | 19953 ft | 422 kts | 51° |
| 2026-05-08 00:07 | 23.60218 | 47.49937 | 20003 ft | 422 kts | 51° |
| 2026-05-08 00:07 | 23.62257 | 47.52412 | 20055 ft | 422 kts | 51° |
| 2026-05-08 00:07 | 23.64237 | 47.54815 | 20105 ft | 422 kts | 51° |
| 2026-05-08 00:08 | 23.66194 | 47.57188 | 20155 ft | 422 kts | 51° |
| 2026-05-08 00:08 | 23.68174 | 47.59588 | 20205 ft | 422 kts | 51° |
| 2026-05-08 00:08 | 23.70139 | 47.61968 | 20255 ft | 422 kts | 51° |
| 2026-05-08 00:08 | 23.72098 | 47.64340 | 20305 ft | 422 kts | 51° |
| 2026-05-08 00:09 | 23.74022 | 47.66758 | 20361 ft | 422 kts | 57° |
| 2026-05-08 00:09 | 23.75462 | 47.69539 | 20407 ft | 421 kts | 69° |
| 2026-05-08 00:09 | 23.76776 | 47.72879 | 20468 ft | 421 kts | 71° |
| 2026-05-08 00:09 | 23.78092 | 47.76290 | 20525 ft | 421 kts | 70° |
| 2026-05-08 00:10 | 23.79428 | 47.79722 | 20583 ft | 421 kts | 70° |
| 2026-05-08 00:10 | 23.80778 | 47.83179 | 20642 ft | 421 kts | 70° |
| 2026-05-08 00:10 | 23.82126 | 47.86628 | 20700 ft | 421 kts | 70° |
| 2026-05-08 00:10 | 23.83443 | 47.89991 | 20757 ft | 421 kts | 70° |
| 2026-05-08 00:11 | 23.84753 | 47.93334 | 20814 ft | 421 kts | 70° |
| 2026-05-08 00:11 | 23.86071 | 47.96693 | 20871 ft | 421 kts | 70° |
| 2026-05-08 00:11 | 23.87227 | 47.99638 | 20921 ft | 421 kts | 70° |
| 2026-05-08 00:11 | 23.88380 | 48.02570 | 20970 ft | 421 kts | 70° |
| 2026-05-08 00:12 | 23.89599 | 48.05482 | 21018 ft | 421 kts | 67° |
| 2026-05-08 00:12 | 23.90913 | 48.08330 | 21071 ft | 421 kts | 66° |
| 2026-05-08 00:12 | 23.92177 | 48.11239 | 21122 ft | 421 kts | 70° |
| 2026-05-08 00:12 | 23.93258 | 48.14199 | 21171 ft | 420 kts | 73° |
| 2026-05-08 00:13 | 23.94174 | 48.17231 | 21221 ft | 420 kts | 76° |
| 2026-05-08 00:13 | 23.94963 | 48.20301 | 21270 ft | 420 kts | 78° |
| 2026-05-08 00:13 | 23.95671 | 48.23396 | 21319 ft | 420 kts | 80° |
| 2026-05-08 00:13 | 23.96328 | 48.26502 | 21369 ft | 420 kts | 81° |
| 2026-05-08 00:14 | 23.96955 | 48.29614 | 21419 ft | 420 kts | 81° |
| 2026-05-08 00:14 | 23.97563 | 48.32727 | 21468 ft | 420 kts | 81° |
| 2026-05-08 00:14 | 23.98162 | 48.35852 | 21518 ft | 420 kts | 81° |
| 2026-05-08 00:14 | 23.98753 | 48.38975 | 21568 ft | 420 kts | 81° |
| 2026-05-08 00:15 | 23.99339 | 48.42095 | 21617 ft | 420 kts | 82° |
| 2026-05-08 00:15 | 23.99920 | 48.45208 | 21667 ft | 420 kts | 82° |
| 2026-05-08 00:15 | 24.00501 | 48.48328 | 21717 ft | 419 kts | 82° |
| 2026-05-08 00:15 | 24.01081 | 48.51450 | 21767 ft | 419 kts | 82° |
| 2026-05-08 00:16 | 24.01660 | 48.54576 | 21816 ft | 419 kts | 82° |
| 2026-05-08 00:16 | 24.02236 | 48.57687 | 21866 ft | 419 kts | 82° |
| 2026-05-08 00:16 | 24.02812 | 48.60806 | 21915 ft | 419 kts | 82° |
| 2026-05-08 00:16 | 24.03388 | 48.63927 | 21965 ft | 419 kts | 82° |
| 2026-05-08 00:17 | 24.03959 | 48.67047 | 22017 ft | 419 kts | 83° |
| 2026-05-08 00:17 | 24.04414 | 48.70194 | 22065 ft | 419 kts | 85° |
| 2026-05-08 00:17 | 24.04801 | 48.73340 | 22114 ft | 419 kts | 85° |
| 2026-05-08 00:17 | 24.05221 | 48.76477 | 22164 ft | 418 kts | 84° |
| 2026-05-08 00:18 | 24.05691 | 48.79606 | 22214 ft | 418 kts | 83° |
| 2026-05-08 00:18 | 24.06200 | 48.82733 | 22265 ft | 418 kts | 83° |
| 2026-05-08 00:18 | 24.06734 | 48.85849 | 22315 ft | 418 kts | 82° |
| 2026-05-08 00:18 | 24.07281 | 48.88960 | 22366 ft | 418 kts | 82° |
| 2026-05-08 00:19 | 24.07837 | 48.92071 | 22416 ft | 418 kts | 82° |
| 2026-05-08 00:19 | 24.08390 | 48.95184 | 22382 ft | 413 kts | 83° |
| 2026-05-08 00:19 | 24.08913 | 48.98248 | 21751 ft | 403 kts | 82° |
| 2026-05-08 00:19 | 24.09497 | 49.01235 | 21249 ft | 391 kts | 81° |
| 2026-05-08 00:20 | 24.10099 | 49.04127 | 20743 ft | 380 kts | 80° |
| 2026-05-08 00:20 | 24.10685 | 49.06913 | 20242 ft | 371 kts | 80° |
| 2026-05-08 00:20 | 24.10879 | 49.07836 | 20073 ft | 368 kts | 80° |
| 2026-05-08 00:20 | 24.11497 | 49.10824 | 19518 ft | 359 kts | 81° |
| 2026-05-08 00:21 | 24.12103 | 49.13810 | 18951 ft | 351 kts | 81° |
| 2026-05-08 00:21 | 24.12696 | 49.16709 | 18388 ft | 344 kts | 80° |
| 2026-05-08 00:21 | 24.13284 | 49.19561 | 17825 ft | 338 kts | 81° |
| 2026-05-08 00:21 | 24.13778 | 49.22078 | 17320 ft | 333 kts | 81° |
| 2026-05-08 00:22 | 24.14268 | 49.24535 | 16816 ft | 329 kts | 78° |
| 2026-05-08 00:22 | 24.14976 | 49.26887 | 16317 ft | 325 kts | 70° |
| 2026-05-08 00:22 | 24.15905 | 49.29117 | 15822 ft | 321 kts | 67° |
| 2026-05-08 00:22 | 24.16866 | 49.31301 | 15323 ft | 318 kts | 67° |
| 2026-05-08 00:23 | 24.17817 | 49.33467 | 14823 ft | 315 kts | 67° |
| 2026-05-08 00:23 | 24.18758 | 49.35612 | 14324 ft | 312 kts | 67° |
| 2026-05-08 00:23 | 24.19691 | 49.37739 | 13825 ft | 310 kts | 67° |
| 2026-05-08 00:23 | 24.20400 | 49.39933 | 13322 ft | 307 kts | 88° |
| 2026-05-08 00:24 | 24.20000 | 49.42182 | 12823 ft | 303 kts | 117° |
| 2026-05-08 00:24 | 24.19179 | 49.44309 | 12329 ft | 301 kts | 111° |
| 2026-05-08 00:24 | 24.18752 | 49.46534 | 11826 ft | 300 kts | 97° |
| 2026-05-08 00:24 | 24.18785 | 49.48798 | 11329 ft | 298 kts | 86° |
| 2026-05-08 00:25 | 24.19087 | 49.51028 | 10831 ft | 296 kts | 83° |
| 2026-05-08 00:25 | 24.19461 | 49.53232 | 10331 ft | 294 kts | 82° |
| 2026-05-08 00:25 | 24.19841 | 49.55425 | 9830 ft | 293 kts | 82° |
| 2026-05-08 00:25 | 24.20225 | 49.57620 | 9326 ft | 292 kts | 82° |
| 2026-05-08 00:26 | 24.20613 | 49.59823 | 8817 ft | 290 kts | 82° |
| 2026-05-08 00:26 | 24.21027 | 49.62076 | 8704 ft | 294 kts | 81° |
| 2026-05-08 00:26 | 24.21430 | 49.64329 | 9511 ft | 289 kts | 83° |
| 2026-05-08 00:26 | 24.21809 | 49.66578 | 10062 ft | 294 kts | 82° |
| 2026-05-08 00:27 | 24.22199 | 49.68773 | 10692 ft | 294 kts | 82° |
| 2026-05-08 00:27 | 24.22586 | 49.70976 | 11246 ft | 297 kts | 82° |
| 2026-05-08 00:27 | 24.22978 | 49.73205 | 11738 ft | 300 kts | 83° |
| 2026-05-08 00:27 | 24.23342 | 49.75489 | 11807 ft | 302 kts | 84° |
| 2026-05-08 00:28 | 24.23703 | 49.77791 | 11798 ft | 299 kts | 83° |
| 2026-05-08 00:28 | 24.24079 | 49.80158 | 11800 ft | 299 kts | 84° |
| 2026-05-08 00:28 | 24.24453 | 49.82510 | 11801 ft | 299 kts | 83° |
| 2026-05-08 00:28 | 24.24931 | 49.84792 | 11797 ft | 299 kts | 76° |
| 2026-05-08 00:29 | 24.25685 | 49.87024 | 11808 ft | 299 kts | 75° |
| 2026-05-08 00:29 | 24.26045 | 49.89245 | 11796 ft | 299 kts | 89° |
| 2026-05-08 00:29 | 24.26213 | 49.91501 | 11801 ft | 299 kts | 86° |
| 2026-05-08 00:29 | 24.26498 | 49.93769 | 11801 ft | 299 kts | 84° |
| 2026-05-08 00:30 | 24.26849 | 49.96076 | 11800 ft | 299 kts | 83° |
| 2026-05-08 00:30 | 24.27223 | 49.98353 | 11800 ft | 299 kts | 83° |
| 2026-05-08 00:30 | 24.27601 | 50.00585 | 11800 ft | 299 kts | 83° |
| 2026-05-08 00:30 | 24.27984 | 50.02804 | 11800 ft | 299 kts | 82° |
| 2026-05-08 00:31 | 24.28350 | 50.05035 | 11800 ft | 299 kts | 84° |
| 2026-05-08 00:31 | 24.28693 | 50.07268 | 11799 ft | 299 kts | 83° |
| 2026-05-08 00:31 | 24.29056 | 50.09501 | 11800 ft | 299 kts | 83° |
| 2026-05-08 00:31 | 24.29432 | 50.11734 | 11800 ft | 299 kts | 83° |
| 2026-05-08 00:32 | 24.29816 | 50.13968 | 11800 ft | 299 kts | 82° |
| 2026-05-08 00:32 | 24.30202 | 50.16198 | 11800 ft | 299 kts | 82° |
| 2026-05-08 00:32 | 24.30587 | 50.18415 | 11800 ft | 299 kts | 82° |
| 2026-05-08 00:32 | 24.30974 | 50.20641 | 11800 ft | 299 kts | 82° |
| 2026-05-08 00:33 | 24.31373 | 50.22943 | 11800 ft | 299 kts | 82° |
| 2026-05-08 00:33 | 24.31782 | 50.25300 | 11800 ft | 299 kts | 82° |
| 2026-05-08 00:33 | 24.32182 | 50.27609 | 11800 ft | 299 kts | 82° |
| 2026-05-08 00:33 | 24.32591 | 50.29966 | 11800 ft | 299 kts | 82° |
| 2026-05-08 00:34 | 24.32989 | 50.32268 | 11800 ft | 299 kts | 82° |
| 2026-05-08 00:34 | 24.33389 | 50.34580 | 11800 ft | 299 kts | 82° |
| 2026-05-08 00:34 | 24.33799 | 50.36966 | 11801 ft | 299 kts | 83° |
| 2026-05-08 00:34 | 24.34087 | 50.39357 | 11799 ft | 299 kts | 87° |
| 2026-05-08 00:35 | 24.34301 | 50.41741 | 11799 ft | 299 kts | 87° |
| 2026-05-08 00:35 | 24.34521 | 50.44137 | 11800 ft | 299 kts | 87° |
| 2026-05-08 00:35 | 24.34747 | 50.46591 | 11800 ft | 299 kts | 87° |
| 2026-05-08 00:35 | 24.34971 | 50.49019 | 11801 ft | 299 kts | 88° |
| 2026-05-08 00:36 | 24.34780 | 50.51300 | 11784 ft | 299 kts | 115° |
| 2026-05-08 00:36 | 24.33784 | 50.53367 | 11914 ft | 297 kts | 128° |
| 2026-05-08 00:36 | 24.32485 | 50.55284 | 11948 ft | 300 kts | 130° |
| 2026-05-08 00:36 | 24.31272 | 50.57286 | 11795 ft | 300 kts | 121° |
| 2026-05-08 00:37 | 24.30480 | 50.59459 | 11790 ft | 297 kts | 106° |
| 2026-05-08 00:37 | 24.30260 | 50.61798 | 11946 ft | 304 kts | 89° |
| 2026-05-08 00:37 | 24.30275 | 50.64067 | 12704 ft | 297 kts | 103° |
| 2026-05-08 00:38 | 24.28971 | 50.68204 | 14749 ft | 259 kts | 110° |
| 2026-05-08 00:38 | 24.28471 | 50.70246 | 14951 ft | 274 kts | 101° |
| 2026-05-08 00:38 | 24.28559 | 50.72389 | 15638 ft | 265 kts | 77° |
| 2026-05-08 00:38 | 24.29362 | 50.74233 | 16307 ft | 259 kts | 56° |
| 2026-05-08 00:39 | 24.30648 | 50.75729 | 16952 ft | 250 kts | 46° |
| 2026-05-08 00:39 | 24.31802 | 50.77151 | 17571 ft | 244 kts | 65° |
| 2026-05-08 00:39 | 24.32302 | 50.79014 | 17720 ft | 255 kts | 104° |
| 2026-05-08 00:39 | 24.31120 | 50.80532 | 17636 ft | 264 kts | 153° |
| 2026-05-08 00:40 | 24.29361 | 50.80603 | 17933 ft | 259 kts | 212° |
| 2026-05-08 00:40 | 24.28371 | 50.78936 | 17845 ft | 272 kts | 268° |
| 2026-05-08 00:40 | 24.28163 | 50.76814 | 18375 ft | 268 kts | 259° |
| 2026-05-08 00:40 | 24.27252 | 50.74858 | 18388 ft | 284 kts | 238° |
| 2026-05-08 00:41 | 24.26854 | 50.72820 | 18947 ft | 273 kts | 296° |
| 2026-05-08 00:41 | 24.27520 | 50.70909 | 19895 ft | 245 kts | 293° |
| 2026-05-08 00:41 | 24.28266 | 50.69249 | 20629 ft | 238 kts | 318° |
| 2026-05-08 00:41 | 24.29559 | 50.67801 | 20063 ft | 280 kts | 314° |
| 2026-05-08 00:42 | 24.31052 | 50.66087 | 19852 ft | 300 kts | 335° |
| 2026-05-08 00:42 | 24.33086 | 50.65833 | 20502 ft | 285 kts | 22° |
| 2026-05-08 00:42 | 24.34802 | 50.66956 | 21250 ft | 269 kts | 46° |
| 2026-05-08 00:42 | 24.35794 | 50.68769 | 21439 ft | 274 kts | 89° |
| 2026-05-08 00:43 | 24.35505 | 50.70855 | 22117 ft | 255 kts | 108° |
| 2026-05-08 00:43 | 24.34947 | 50.72796 | 22259 ft | 266 kts | 121° |
| 2026-05-08 00:43 | 24.33723 | 50.74609 | 21852 ft | 295 kts | 133° |
| 2026-05-08 00:43 | 24.32367 | 50.76570 | 21455 ft | 323 kts | 125° |
| 2026-05-08 00:44 | 24.31309 | 50.78997 | 20925 ft | 347 kts | 110° |
| 2026-05-08 00:44 | 24.30872 | 50.81682 | 20393 ft | 346 kts | 94° |
| 2026-05-08 00:44 | 24.31113 | 50.84283 | 19879 ft | 341 kts | 78° |
| 2026-05-08 00:44 | 24.31986 | 50.86662 | 19371 ft | 336 kts | 62° |
| 2026-05-08 00:45 | 24.33418 | 50.88638 | 18866 ft | 332 kts | 45° |
| 2026-05-08 00:45 | 24.35298 | 50.90047 | 18364 ft | 329 kts | 27° |
| 2026-05-08 00:45 | 24.37488 | 50.90762 | 17857 ft | 327 kts | 9° |
| 2026-05-08 00:45 | 24.39737 | 50.90691 | 17356 ft | 325 kts | 351° |
| 2026-05-08 00:46 | 24.41942 | 50.89783 | 16828 ft | 322 kts | 332° |
| 2026-05-08 00:46 | 24.43742 | 50.88104 | 16294 ft | 320 kts | 311° |
| 2026-05-08 00:46 | 24.44900 | 50.85873 | 15762 ft | 317 kts | 294° |
| 2026-05-08 00:46 | 24.46200 | 50.84028 | 16428 ft | 282 kts | 334° |
| 2026-05-08 00:47 | 24.48020 | 50.83513 | 17354 ft | 263 kts | 7° |
| 2026-05-08 00:47 | 24.49830 | 50.84094 | 17727 ft | 265 kts | 35° |
| 2026-05-08 00:47 | 24.51077 | 50.85397 | 18667 ft | 240 kts | 63° |
| 2026-05-08 00:47 | 24.51570 | 50.87044 | 19497 ft | 217 kts | 84° |
| 2026-05-08 00:48 | 24.51856 | 50.88850 | 19719 ft | 233 kts | 82° |
| 2026-05-08 00:48 | 24.52187 | 50.90677 | 19343 ft | 236 kts | 82° |
| 2026-05-08 00:48 | 24.52503 | 50.92509 | 18788 ft | 245 kts | 83° |
| 2026-05-08 00:48 | 24.52818 | 50.94457 | 18223 ft | 253 kts | 83° |
| 2026-05-08 00:49 | 24.53122 | 50.96395 | 17676 ft | 266 kts | 83° |
| 2026-05-08 00:49 | 24.53443 | 50.98530 | 17122 ft | 295 kts | 84° |
| 2026-05-08 00:49 | 24.53790 | 51.00968 | 16529 ft | 309 kts | 84° |
| 2026-05-08 00:49 | 24.54152 | 51.03455 | 15939 ft | 310 kts | 84° |
| 2026-05-08 00:50 | 24.54529 | 51.05952 | 15347 ft | 310 kts | 84° |
| 2026-05-08 00:50 | 24.54894 | 51.08325 | 14785 ft | 310 kts | 83° |
| 2026-05-08 00:50 | 24.55266 | 51.10717 | 14216 ft | 309 kts | 83° |
| 2026-05-08 00:50 | 24.55641 | 51.13123 | 13645 ft | 309 kts | 83° |
| 2026-05-08 00:51 | 24.56010 | 51.15481 | 13083 ft | 308 kts | 83° |
| 2026-05-08 00:51 | 24.56379 | 51.17829 | 12522 ft | 307 kts | 83° |
| 2026-05-08 00:51 | 24.56751 | 51.20209 | 11952 ft | 306 kts | 83° |
| 2026-05-08 00:51 | 24.57110 | 51.22496 | 11402 ft | 305 kts | 83° |
| 2026-05-08 00:52 | 24.57468 | 51.24778 | 10851 ft | 303 kts | 83° |
| 2026-05-08 00:52 | 24.57826 | 51.27062 | 10297 ft | 302 kts | 83° |
| 2026-05-08 00:52 | 24.58194 | 51.29321 | 9998 ft | 302 kts | 82° |
| 2026-05-08 00:52 | 24.58576 | 51.31595 | 10828 ft | 293 kts | 83° |
| 2026-05-08 00:53 | 24.58910 | 51.33771 | 11507 ft | 291 kts | 83° |
| 2026-05-08 00:53 | 24.59269 | 51.35956 | 12108 ft | 291 kts | 83° |
| 2026-05-08 00:53 | 24.59621 | 51.38137 | 12677 ft | 292 kts | 83° |
| 2026-05-08 00:53 | 24.59984 | 51.40399 | 13220 ft | 293 kts | 83° |
| 2026-05-08 00:54 | 24.60336 | 51.42613 | 13725 ft | 295 kts | 83° |
| 2026-05-08 00:54 | 24.60689 | 51.44870 | 14219 ft | 297 kts | 84° |
| 2026-05-08 00:54 | 24.61009 | 51.47119 | 14687 ft | 300 kts | 84° |
| 2026-05-08 00:54 | 24.61330 | 51.49379 | 15144 ft | 302 kts | 84° |
| 2026-05-08 00:55 | 24.61671 | 51.51656 | 15588 ft | 304 kts | 83° |
| 2026-05-08 00:55 | 24.62021 | 51.53945 | 16022 ft | 306 kts | 83° |
| 2026-05-08 00:55 | 24.62379 | 51.56252 | 16440 ft | 308 kts | 83° |
| 2026-05-08 00:55 | 24.62739 | 51.58571 | 16851 ft | 309 kts | 83° |
| 2026-05-08 00:56 | 24.63104 | 51.60915 | 17249 ft | 311 kts | 83° |
| 2026-05-08 00:56 | 24.63468 | 51.63262 | 17636 ft | 313 kts | 83° |
| 2026-05-08 00:56 | 24.63836 | 51.65634 | 18014 ft | 315 kts | 84° |
| 2026-05-08 00:56 | 24.64207 | 51.68021 | 18382 ft | 317 kts | 84° |
| 2026-05-08 00:57 | 24.64576 | 51.70415 | 18702 ft | 320 kts | 86° |
| 2026-05-08 00:57 | 24.64599 | 51.72826 | 19247 ft | 314 kts | 101° |
| 2026-05-08 00:57 | 24.64317 | 51.75217 | 19458 ft | 321 kts | 95° |
| 2026-05-08 00:57 | 24.64495 | 51.77662 | 19741 ft | 323 kts | 80° |
| 2026-05-08 00:58 | 24.65163 | 51.80007 | 20107 ft | 323 kts | 73° |
| 2026-05-08 00:58 | 24.65899 | 51.82351 | 20369 ft | 327 kts | 76° |
| 2026-05-08 00:58 | 24.66488 | 51.84762 | 20672 ft | 328 kts | 80° |
| 2026-05-08 00:58 | 24.66981 | 51.87216 | 20964 ft | 330 kts | 82° |
| 2026-05-08 00:59 | 24.67430 | 51.89690 | 21255 ft | 331 kts | 82° |
| 2026-05-08 00:59 | 24.67853 | 51.92180 | 21536 ft | 333 kts | 83° |
| 2026-05-08 00:59 | 24.68261 | 51.94684 | 21812 ft | 334 kts | 83° |
| 2026-05-08 00:59 | 24.68661 | 51.97200 | 22080 ft | 336 kts | 83° |
| 2026-05-08 01:00 | 24.69057 | 51.99728 | 22341 ft | 337 kts | 83° |
| 2026-05-08 01:00 | 24.69450 | 52.02270 | 22596 ft | 338 kts | 83° |
| 2026-05-08 01:00 | 24.69843 | 52.04820 | 22845 ft | 340 kts | 84° |
| 2026-05-08 01:00 | 24.70072 | 52.06317 | 22986 ft | 340 kts | 84° |
| 2026-05-08 01:01 | 24.70205 | 52.07182 | 23068 ft | 341 kts | 84° |